Elgin, North Dakota
Current Conditions -  °F | °C
As of 6:35 AM on Thursday 30 Oct 2014 (Local Time) from KD57 Reporting Station
Overcast Overcast  
Wind Chill: 25°   Ceiling: 3100
Heat Index: 34°   Visibility: 10mi
Dew Point: 32°   Wind: 13mph
Humidity: 93%   Direction: 330°NNW
Pressure: 30.23"   Gusts: NA
Location:  46.4°N, 101.85°W
Report Text: KD57 301235Z AUTO 33011KT 10SM SCT010 OVC031 01/00 A3023 RMK AO2 TSNO
Loading
Personal Weather Stations






























Interactive Weather Map
Tropical Storm Tracking
New forecast layout! Learn more

10-Day Weather Forecast

Advertisements
Track Severe Weather on mobile